Time;durP1;ratioP1;P1;durP2;ratioP2;P2;SDS_P1;SDS_P2;PMS_P1;PMS_P2;Temp;Humidity;BMP_temperature;BMP_pressure;BME280_temperature;BME280_humidity;BME280_pressure;Samples;Min_cycle;Max_cycle;Signal;HPM_P1;HPM_P2
2023/08/17 00:00:18;;;;;;;11.63;10.53;;;28.30;48.10;;;;;;5136157;27;20178;-57
2023/08/17 00:02:44;;;;;;;13.33;12.10;;;28.20;47.80;;;;;;5136190;27;20245;-55
2023/08/17 00:05:10;;;;;;;12.13;11.00;;;28.10;48.10;;;;;;5136127;27;20511;-57
2023/08/17 00:07:36;;;;;;;12.30;11.20;;;28.10;48.10;;;;;;5136064;27;20447;-57
2023/08/17 00:10:02;;;;;;;11.13;10.03;;;28.00;48.50;;;;;;5136131;27;20238;-55
2023/08/17 00:12:28;;;;;;;11.67;10.67;;;28.00;48.60;;;;;;5135960;27;20762;-53
2023/08/17 00:14:54;;;;;;;11.93;10.83;;;27.90;48.20;;;;;;5135631;27;20415;-57
2023/08/17 00:17:20;;;;;;;12.50;11.43;;;27.90;48.10;;;;;;5136090;27;20828;-55
2023/08/17 00:19:47;;;;;;;12.00;10.70;;;27.90;48.20;;;;;;5136037;27;20747;-55
2023/08/17 00:22:12;;;;;;;12.27;10.87;;;27.80;48.30;;;;;;5135780;27;20411;-56
2023/08/17 00:24:40;;;;;;;14.47;13.10;;;27.70;48.30;;;;;;5134224;27;20408;-52
2023/08/17 00:27:06;;;;;;;14.17;12.07;;;27.70;48.20;;;;;;5135745;27;20571;-55
2023/08/17 00:29:32;;;;;;;16.50;14.83;;;27.60;48.30;;;;;;5135585;27;20877;-56
2023/08/17 00:31:58;;;;;;;12.87;11.70;;;27.60;48.70;;;;;;5135694;27;20457;-54
2023/08/17 00:34:23;;;;;;;12.03;10.80;;;27.50;48.80;;;;;;5135425;27;20423;-52
2023/08/17 00:36:49;;;;;;;13.47;12.17;;;27.50;48.90;;;;;;5135672;27;20620;-56
2023/08/17 00:39:15;;;;;;;12.80;11.60;;;27.50;49.30;;;;;;5135750;27;20162;-55
2023/08/17 00:41:41;;;;;;;12.93;11.43;;;27.50;48.80;;;;;;5135817;27;20250;-54
2023/08/17 00:44:07;;;;;;;11.73;10.67;;;27.40;48.90;;;;;;5133978;27;20170;-56
2023/08/17 00:46:32;;;;;;;12.93;11.67;;;27.30;48.80;;;;;;5135218;27;20847;-54
2023/08/17 00:48:58;;;;;;;12.80;11.70;;;27.30;48.90;;;;;;5135387;27;20297;-52
2023/08/17 00:51:25;;;;;;;16.53;15.03;;;27.20;49.00;;;;;;5135242;27;20400;-54
2023/08/17 00:53:54;;;;;;;27.80;25.17;;;27.10;49.10;;;;;;5135507;27;20453;-56
2023/08/17 00:56:49;;;;;;;23.53;21.23;;;27.00;49.30;;;;;;5134908;27;20434;-53
2023/08/17 00:59:15;;;;;;;23.40;21.37;;;27.10;49.40;;;;;;5134883;27;20412;-57
2023/08/17 01:01:41;;;;;;;72.47;64.80;;;27.00;49.60;;;;;;5135018;27;20516;-57
2023/08/17 01:04:06;;;;;;;51.13;45.63;;;27.00;49.50;;;;;;5135179;27;20412;-52
2023/08/17 01:06:32;;;;;;;27.07;24.47;;;26.90;49.10;;;;;;5134933;27;20503;-57
2023/08/17 01:08:58;;;;;;;27.80;25.00;;;26.90;49.00;;;;;;5134743;27;20694;-56
2023/08/17 01:12:01;;;;;;;16.50;15.10;;;26.80;49.20;;;;;;5134791;27;20167;-55
2023/08/17 01:14:39;;;;;;;15.70;14.20;;;26.70;49.30;;;;;;5134515;27;20162;-54
2023/08/17 01:17:17;;;;;;;13.87;12.50;;;26.60;49.50;;;;;;5134790;27;20769;-57
2023/08/17 01:19:45;;;;;;;14.20;12.70;;;26.60;49.70;;;;;;5134738;27;20900;-53
2023/08/17 01:22:17;;;;;;;14.37;13.17;;;26.50;50.80;;;;;;5134968;27;20400;-53
2023/08/17 01:24:43;;;;;;;14.60;13.23;;;26.50;50.20;;;;;;5134476;27;20842;-55
2023/08/17 01:27:09;;;;;;;13.37;12.17;;;26.60;50.20;;;;;;5134414;27;20486;-53
2023/08/17 01:29:35;;;;;;;15.40;11.63;;;26.60;50.10;;;;;;5134527;27;20171;-54
2023/08/17 01:32:15;;;;;;;14.07;12.63;;;26.60;49.80;;;;;;5134281;27;20249;-57
2023/08/17 01:34:53;;;;;;;14.10;12.70;;;26.60;49.70;;;;;;5134407;27;20877;-54
2023/08/17 01:37:21;;;;;;;13.97;12.70;;;26.60;49.60;;;;;;5134464;27;20461;-56
2023/08/17 01:39:52;;;;;;;13.23;12.13;;;26.60;49.60;;;;;;5134391;27;20412;-53
2023/08/17 01:42:18;;;;;;;13.27;12.07;;;26.60;49.60;;;;;;5134179;27;20483;-56
2023/08/17 01:44:44;;;;;;;13.67;12.47;;;26.50;50.20;;;;;;5132671;27;20467;-56
2023/08/17 01:47:11;;;;;;;11.60;10.40;;;26.40;49.70;;;;;;5134024;27;20481;-53
2023/08/17 01:49:37;;;;;;;13.83;11.90;;;26.40;49.80;;;;;;5134094;27;20396;-55
2023/08/17 01:52:03;;;;;;;14.23;12.80;;;26.40;50.00;;;;;;5134062;27;20407;-54
2023/08/17 01:54:28;;;;;;;16.67;14.13;;;26.40;49.80;;;;;;5133586;27;20162;-52
2023/08/17 01:56:54;;;;;;;14.93;13.63;;;26.30;49.70;;;;;;5133892;27;20953;-55
2023/08/17 01:59:20;;;;;;;14.97;13.47;;;26.30;49.90;;;;;;5134140;27;20647;-57
2023/08/17 02:01:45;;;;;;;16.23;14.53;;;26.30;50.00;;;;;;5132550;27;20174;-53
2023/08/17 02:04:11;;;;;;;17.00;15.30;;;26.20;50.20;;;;;;5133570;27;20181;-56
2023/08/17 02:06:37;;;;;;;21.43;17.57;;;26.20;50.10;;;;;;5133746;27;20190;-57
2023/08/17 02:09:21;;;;;;;20.23;18.13;;;26.20;50.30;;;;;;5133678;27;20191;-53
2023/08/17 02:11:47;;;;;;;24.70;21.97;;;26.10;50.40;;;;;;5134039;27;20167;-54
2023/08/17 02:14:13;;;;;;;21.90;19.63;;;26.10;50.50;;;;;;5133606;27;20916;-53
2023/08/17 02:16:38;;;;;;;13.43;11.77;;;26.10;50.50;;;;;;5133463;27;20178;-56
2023/08/17 02:19:04;;;;;;;13.67;12.20;;;26.20;50.60;;;;;;5133714;27;20173;-52
2023/08/17 02:21:30;;;;;;;17.27;15.47;;;26.10;50.50;;;;;;5133557;27;20166;-56
2023/08/17 02:23:56;;;;;;;16.83;15.13;;;26.10;50.50;;;;;;5133375;27;20408;-54
2023/08/17 02:26:21;;;;;;;11.10;10.00;;;26.10;50.60;;;;;;5133207;27;20265;-53
2023/08/17 02:28:47;;;;;;;15.60;14.20;;;26.10;50.60;;;;;;5133392;27;20209;-56
2023/08/17 02:31:13;;;;;;;13.37;12.10;;;26.10;50.50;;;;;;5133423;27;20174;-55
2023/08/17 02:33:39;;;;;;;14.90;13.53;;;26.10;50.40;;;;;;5133302;27;20158;-54
2023/08/17 02:36:05;;;;;;;10.63;9.63;;;26.00;50.20;;;;;;5132972;27;20283;-53
2023/08/17 02:38:30;;;;;;;12.40;11.30;;;26.00;50.20;;;;;;5133185;27;20171;-55
2023/08/17 02:40:56;;;;;;;11.80;10.60;;;26.00;50.30;;;;;;5133216;27;20770;-52
2023/08/17 02:43:22;;;;;;;9.83;8.97;;;26.00;50.40;;;;;;5133130;27;20174;-52
2023/08/17 02:45:48;;;;;;;11.37;10.40;;;25.90;49.90;;;;;;5133071;27;20191;-56
2023/08/17 02:48:13;;;;;;;11.70;10.60;;;25.90;50.00;;;;;;5133333;27;20191;-56
2023/08/17 02:50:39;;;;;;;11.27;10.27;;;25.90;50.10;;;;;;5133104;27;20170;-53
2023/08/17 02:53:05;;;;;;;10.57;9.57;;;25.90;50.10;;;;;;5131948;27;20179;-53
2023/08/17 02:55:31;;;;;;;10.50;9.60;;;25.90;50.10;;;;;;5132955;27;20182;-54
2023/08/17 02:57:56;;;;;;;10.23;9.33;;;25.90;50.00;;;;;;5133228;27;20171;-53
2023/08/17 03:00:22;;;;;;;9.57;8.77;;;25.90;50.20;;;;;;5133108;27;20166;-56
2023/08/17 03:02:48;;;;;;;11.50;10.50;;;25.90;50.30;;;;;;5133014;28;20183;-53
2023/08/17 03:05:13;;;;;;;11.97;10.70;;;25.90;50.40;;;;;;5132888;27;20263;-55
2023/08/17 03:07:39;;;;;;;11.27;10.13;;;25.90;50.40;;;;;;5135438;27;20323;-56
2023/08/17 03:10:05;;;;;;;11.53;10.33;;;25.90;50.50;;;;;;5137276;27;20158;-53
2023/08/17 03:12:31;;;;;;;14.63;13.13;;;25.90;50.40;;;;;;5137192;27;20257;-54
2023/08/17 03:14:57;;;;;;;12.43;10.00;;;25.90;50.40;;;;;;5137083;27;20507;-53
2023/08/17 03:17:23;;;;;;;10.20;9.20;;;25.90;50.30;;;;;;5137087;27;20166;-52
2023/08/17 03:19:48;;;;;;;12.73;11.50;;;25.80;50.30;;;;;;5137118;27;20162;-56
2023/08/17 03:22:14;;;;;;;12.27;10.17;;;25.70;50.40;;;;;;5136919;27;20171;-53
2023/08/17 03:24:40;;;;;;;11.53;10.40;;;25.80;50.60;;;;;;5136724;27;20647;-53
2023/08/17 03:27:06;;;;;;;18.27;13.10;;;25.80;50.40;;;;;;5136853;27;20284;-57
2023/08/17 03:29:31;;;;;;;13.40;11.00;;;25.80;50.40;;;;;;5136770;27;20185;-53
2023/08/17 03:31:57;;;;;;;17.80;12.67;;;25.80;50.40;;;;;;5137145;27;20167;-55
2023/08/17 03:34:23;;;;;;;15.30;12.03;;;25.70;50.30;;;;;;5136558;27;20209;-59
2023/08/17 03:36:49;;;;;;;21.03;11.30;;;25.70;50.20;;;;;;5136775;27;20555;-53
2023/08/17 03:39:15;;;;;;;17.50;11.40;;;25.70;50.40;;;;;;5136759;27;20166;-54
2023/08/17 03:41:41;;;;;;;11.70;10.40;;;25.60;50.60;;;;;;5136932;27;20419;-53
2023/08/17 03:44:09;;;;;;;10.17;9.13;;;25.60;50.80;;;;;;5136389;27;20632;-51
2023/08/17 03:46:34;;;;;;;10.60;9.60;;;25.60;50.80;;;;;;5136591;27;20419;-55
2023/08/17 03:49:00;;;;;;;12.73;11.47;;;25.60;50.70;;;;;;5136553;27;20584;-56
2023/08/17 03:51:26;;;;;;;13.87;11.03;;;25.70;50.70;;;;;;5136393;27;20194;-56
2023/08/17 03:54:30;;;;;;;10.73;9.67;;;25.60;50.40;;;;;;5136590;27;20171;-58
2023/08/17 03:56:56;;;;;;;11.17;10.07;;;25.60;50.20;;;;;;5135378;27;20182;-55
2023/08/17 03:59:21;;;;;;;12.10;10.57;;;25.50;50.40;;;;;;5136354;27;20396;-54
2023/08/17 04:01:47;;;;;;;10.23;9.17;;;25.50;50.50;;;;;;5136480;27;20220;-56
2023/08/17 04:04:13;;;;;;;15.27;10.00;;;25.50;50.40;;;;;;5136330;27;20528;-54
2023/08/17 04:06:40;;;;;;;9.90;9.00;;;25.50;50.60;;;;;;5136415;27;20277;-54
2023/08/17 04:09:06;;;;;;;8.83;8.03;;;25.50;50.70;;;;;;5136068;27;20194;-56
2023/08/17 04:11:36;;;;;;;9.60;8.73;;;25.50;50.80;;;;;;5136108;27;20897;-54
2023/08/17 04:14:01;;;;;;;9.80;8.80;;;25.50;50.80;;;;;;5135972;27;20182;-54
2023/08/17 04:16:27;;;;;;;17.27;8.50;;;25.60;50.90;;;;;;5135784;27;20435;-55
2023/08/17 04:18:53;;;;;;;24.57;10.50;;;25.60;50.90;;;;;;5136212;27;20809;-56
2023/08/17 04:21:20;;;;;;;21.70;10.20;;;25.50;50.80;;;;;;5135060;27;20178;-52
2023/08/17 04:23:46;;;;;;;18.20;10.10;;;25.50;50.70;;;;;;5136018;27;20552;-54
2023/08/17 04:26:11;;;;;;;12.37;8.63;;;25.50;50.70;;;;;;5135597;27;20431;-59
2023/08/17 04:28:37;;;;;;;10.93;9.90;;;25.50;50.80;;;;;;5134404;27;20531;-54
2023/08/17 04:31:03;;;;;;;11.87;8.87;;;25.50;51.00;;;;;;5135688;27;20186;-55
2023/08/17 04:33:29;;;;;;;11.43;9.27;;;25.50;51.10;;;;;;5135836;27;20170;-58
2023/08/17 04:35:55;;;;;;;11.30;10.20;;;25.50;51.20;;;;;;5135386;27;20944;-52
2023/08/17 04:38:20;;;;;;;10.80;9.90;;;25.50;51.20;;;;;;5135776;27;20171;-52
2023/08/17 04:40:46;;;;;;;11.00;9.90;;;25.50;51.20;;;;;;5135581;27;20227;-57
2023/08/17 04:43:29;;;;;;;9.80;8.67;;;25.50;51.30;;;;;;5135746;27;20179;-51
2023/08/17 04:45:55;;;;;;;11.67;10.43;;;25.60;51.40;;;;;;5135274;27;20201;-58
2023/08/17 04:48:21;;;;;;;10.87;9.90;;;25.60;51.50;;;;;;5135542;27;20530;-53
2023/08/17 04:50:47;;;;;;;10.43;9.33;;;25.60;51.70;;;;;;5135301;27;20254;-58
2023/08/17 04:53:12;;;;;;;10.63;9.63;;;25.70;51.60;;;;;;5135566;27;20587;-54
2023/08/17 04:55:38;;;;;;;10.37;9.30;;;25.70;51.80;;;;;;5135117;27;20194;-53
2023/08/17 04:58:04;;;;;;;12.43;9.17;;;25.70;51.90;;;;;;5135238;27;20219;-56
2023/08/17 05:00:30;;;;;;;12.30;9.90;;;25.70;52.00;;;;;;5135388;27;20266;-53
2023/08/17 05:02:56;;;;;;;11.20;10.30;;;25.80;52.00;;;;;;5135032;27;20677;-55
2023/08/17 05:05:22;;;;;;;9.53;8.63;;;25.80;52.00;;;;;;5134962;27;20435;-58
2023/08/17 05:07:48;;;;;;;10.53;9.57;;;25.80;52.00;;;;;;5135082;27;20448;-53
2023/08/17 05:10:14;;;;;;;11.67;10.47;;;25.90;52.10;;;;;;5134819;27;20476;-57
2023/08/17 05:12:40;;;;;;;12.60;11.50;;;25.90;52.10;;;;;;5134809;27;20404;-58
2023/08/17 05:15:06;;;;;;;16.30;11.33;;;25.90;52.00;;;;;;5134632;27;20662;-53
2023/08/17 05:17:32;;;;;;;12.00;9.70;;;26.00;52.30;;;;;;5134739;27;20178;-57
2023/08/17 05:19:58;;;;;;;15.30;12.90;;;26.00;52.30;;;;;;5135028;27;20541;-54
2023/08/17 05:22:24;;;;;;;10.80;9.80;;;26.10;52.40;;;;;;5134740;27;20251;-53
2023/08/17 05:24:49;;;;;;;11.20;9.90;;;26.10;52.50;;;;;;5134720;27;20196;-55
2023/08/17 05:27:22;;;;;;;13.60;12.10;;;26.10;52.60;;;;;;5134398;27;20540;-52
2023/08/17 05:29:47;;;;;;;12.67;11.50;;;26.20;52.30;;;;;;5133934;27;20178;-53
2023/08/17 05:32:13;;;;;;;12.00;10.80;;;26.20;52.40;;;;;;5134454;27;20415;-57
2023/08/17 05:34:39;;;;;;;17.43;12.17;;;26.20;53.20;;;;;;5134330;27;20269;-53
2023/08/17 05:37:05;;;;;;;12.57;11.47;;;26.30;52.80;;;;;;5134537;27;20684;-54
2023/08/17 05:39:30;;;;;;;12.90;11.60;;;26.30;52.60;;;;;;5134423;27;20505;-59
2023/08/17 05:41:56;;;;;;;12.97;11.80;;;26.40;52.40;;;;;;5134187;27;20249;-53
2023/08/17 05:44:22;;;;;;;13.70;12.40;;;26.40;52.00;;;;;;5134284;27;20182;-53
2023/08/17 05:46:48;;;;;;;12.30;11.00;;;26.40;51.50;;;;;;5134116;27;20234;-55
2023/08/17 05:49:14;;;;;;;12.60;11.43;;;26.50;51.50;;;;;;5134122;27;20718;-56
2023/08/17 05:51:40;;;;;;;13.30;12.10;;;26.60;51.50;;;;;;5134389;27;20416;-52
2023/08/17 05:54:05;;;;;;;12.67;11.30;;;26.70;51.30;;;;;;5133905;27;20159;-57
2023/08/17 05:56:31;;;;;;;11.80;10.70;;;26.70;50.80;;;;;;5132490;27;20186;-57
2023/08/17 05:58:57;;;;;;;12.47;11.27;;;26.80;50.60;;;;;;5134330;27;20179;-52
2023/08/17 06:01:23;;;;;;;10.93;9.93;;;26.80;50.00;;;;;;5133937;27;20478;-52
2023/08/17 06:03:49;;;;;;;11.70;10.53;;;26.80;49.90;;;;;;5134016;27;20170;-57
2023/08/17 06:06:15;;;;;;;13.20;11.90;;;26.80;50.20;;;;;;5133811;27;20186;-57
2023/08/17 06:08:41;;;;;;;11.73;10.73;;;26.90;50.00;;;;;;5133699;27;20454;-51
2023/08/17 06:11:06;;;;;;;11.50;10.37;;;26.90;49.50;;;;;;5132527;27;20175;-53
2023/08/17 06:13:32;;;;;;;11.93;10.83;;;26.80;49.40;;;;;;5133976;27;20194;-57
2023/08/17 06:15:58;;;;;;;12.70;11.40;;;26.80;49.50;;;;;;5133512;27;20664;-54
2023/08/17 06:18:24;;;;;;;13.33;12.03;;;26.80;49.70;;;;;;5133776;27;20188;-58
2023/08/17 06:20:53;;;;;;;14.13;12.80;;;26.80;49.60;;;;;;5133717;27;20671;-54
2023/08/17 06:23:20;;;;;;;13.67;12.27;;;26.80;49.70;;;;;;5133890;27;20664;-53
2023/08/17 06:25:45;;;;;;;15.63;13.43;;;26.80;50.20;;;;;;5133310;27;20424;-55
2023/08/17 06:28:11;;;;;;;14.47;13.07;;;26.90;50.10;;;;;;5133425;27;20444;-56
2023/08/17 06:30:37;;;;;;;14.90;13.30;;;26.90;49.80;;;;;;5133437;27;20159;-53
2023/08/17 06:33:04;;;;;;;12.27;11.00;;;26.90;50.00;;;;;;5133639;27;20258;-55
2023/08/17 06:35:30;;;;;;;13.33;12.03;;;27.00;50.60;;;;;;5133143;27;20899;-54
2023/08/17 06:37:57;;;;;;;12.43;11.23;;;27.10;50.20;;;;;;5133245;27;20400;-52
2023/08/17 06:40:24;;;;;;;15.03;13.27;;;27.10;49.90;;;;;;5133080;27;20185;-53
2023/08/17 06:42:50;;;;;;;13.67;12.47;;;27.10;49.80;;;;;;5132589;27;20404;-56
2023/08/17 06:45:18;;;;;;;19.03;17.30;;;27.10;49.50;;;;;;5132881;27;20430;-53
2023/08/17 06:47:45;;;;;;;14.37;12.17;;;27.10;49.70;;;;;;5133213;27;20556;-58
2023/08/17 06:50:11;;;;;;;14.87;13.47;;;27.10;49.70;;;;;;5133168;27;20400;-56
2023/08/17 06:52:37;;;;;;;13.83;12.40;;;27.20;50.00;;;;;;5131793;27;20404;-52
2023/08/17 06:55:03;;;;;;;13.30;11.50;;;27.30;49.80;;;;;;5132700;27;20196;-52
2023/08/17 06:57:29;;;;;;;13.50;12.23;;;27.40;50.20;;;;;;5133078;27;20408;-58
2023/08/17 06:59:54;;;;;;;24.47;10.50;;;27.50;49.80;;;;;;5133150;27;20491;-52
2023/08/17 07:02:20;;;;;;;12.07;10.37;;;27.60;49.80;;;;;;5133031;28;20658;-51
2023/08/17 07:04:47;;;;;;;12.70;11.50;;;27.70;49.50;;;;;;5132717;27;20564;-57
2023/08/17 07:07:14;;;;;;;13.00;11.80;;;27.80;49.90;;;;;;5132825;28;20542;-52
2023/08/17 07:09:40;;;;;;;14.43;12.90;;;27.90;49.50;;;;;;5132847;28;20404;-51
2023/08/17 07:12:06;;;;;;;13.23;12.13;;;28.00;49.40;;;;;;5132923;27;20501;-57
2023/08/17 07:14:33;;;;;;;13.10;11.73;;;28.00;49.20;;;;;;5132626;27;20645;-57
2023/08/17 07:16:59;;;;;;;14.10;12.90;;;28.10;49.50;;;;;;5132842;27;20436;-52
2023/08/17 07:19:25;;;;;;;14.13;12.63;;;28.20;49.60;;;;;;5133298;27;20396;-52
2023/08/17 07:21:51;;;;;;;13.70;12.23;;;28.20;49.00;;;;;;5132777;28;20766;-55
2023/08/17 07:24:17;;;;;;;14.40;12.60;;;28.30;49.10;;;;;;5132773;27;20399;-52
2023/08/17 07:26:43;;;;;;;14.50;13.07;;;28.40;48.70;;;;;;5132698;28;20847;-52
2023/08/17 07:29:09;;;;;;;14.57;13.17;;;28.40;48.60;;;;;;5132863;27;20206;-55
2023/08/17 07:31:37;;;;;;;14.80;13.50;;;28.40;48.00;;;;;;5132783;27;20821;-54
2023/08/17 07:34:04;;;;;;;15.73;14.07;;;28.40;47.70;;;;;;5131346;28;20419;-53
2023/08/17 07:36:30;;;;;;;15.07;13.70;;;28.40;47.40;;;;;;5132728;27;20859;-56
2023/08/17 07:38:56;;;;;;;14.97;13.30;;;28.40;48.10;;;;;;5121147;27;20429;-57
2023/08/17 07:41:22;;;;;;;13.70;12.43;;;28.40;49.40;;;;;;5112419;28;20409;-52
2023/08/17 07:43:47;;;;;;;14.07;12.73;;;28.60;48.60;;;;;;5112402;28;20567;-53
2023/08/17 07:46:13;;;;;;;14.27;12.80;;;28.60;47.40;;;;;;5111721;28;20619;-55
2023/08/17 07:48:39;;;;;;;14.43;13.00;;;28.60;46.20;;;;;;5111980;28;20257;-52
2023/08/17 07:51:04;;;;;;;13.30;12.17;;;28.50;46.50;;;;;;5111965;28;20175;-54
2023/08/17 07:53:30;;;;;;;13.87;12.67;;;28.50;46.90;;;;;;5112542;28;20204;-52
2023/08/17 07:55:56;;;;;;;14.80;13.40;;;28.50;46.90;;;;;;5115531;28;20182;-52
2023/08/17 07:58:22;;;;;;;11.23;10.13;;;28.60;47.50;;;;;;5115861;28;20652;-56
2023/08/17 08:00:47;;;;;;;10.50;9.60;;;28.70;47.80;;;;;;5115768;28;20616;-52
2023/08/17 08:03:15;;;;;;;11.50;10.50;;;28.80;46.80;;;;;;5115922;28;20237;-55
2023/08/17 08:05:40;;;;;;;12.83;11.63;;;28.90;46.90;;;;;;5115395;28;20556;-51
2023/08/17 08:08:06;;;;;;;13.43;10.90;;;28.90;46.70;;;;;;5115516;28;20444;-52
2023/08/17 08:10:32;;;;;;;15.60;12.43;;;29.00;47.10;;;;;;5115597;28;20180;-53
2023/08/17 08:12:58;;;;;;;12.47;11.37;;;29.10;47.10;;;;;;5115520;28;20174;-53
2023/08/17 08:15:23;;;;;;;12.40;11.30;;;29.20;46.80;;;;;;5115229;28;20426;-52
2023/08/17 08:17:49;;;;;;;14.40;12.97;;;29.30;46.00;;;;;;5114241;28;20214;-51
2023/08/17 08:20:15;;;;;;;11.87;10.97;;;29.20;44.00;;;;;;5115244;28;20458;-55
2023/08/17 08:22:41;;;;;;;14.33;12.30;;;29.10;44.50;;;;;;5115564;28;20673;-53
2023/08/17 08:25:07;;;;;;;11.87;10.87;;;29.10;45.00;;;;;;5115049;28;20187;-57
2023/08/17 08:27:33;;;;;;;14.87;13.50;;;29.10;45.60;;;;;;5115151;27;20198;-52
2023/08/17 08:29:58;;;;;;;13.30;12.20;;;29.10;45.70;;;;;;5115233;28;20403;-53
2023/08/17 08:32:24;;;;;;;13.87;12.47;;;29.20;46.70;;;;;;5115241;28;20630;-53
2023/08/17 08:34:50;;;;;;;13.20;11.90;;;29.30;46.90;;;;;;5114643;28;20198;-52
2023/08/17 08:37:16;;;;;;;13.57;12.30;;;29.40;46.50;;;;;;5114927;28;20405;-50
2023/08/17 08:39:53;;;;;;;12.53;11.10;;;29.60;47.10;;;;;;5113721;28;20211;-55
2023/08/17 08:42:21;;;;;;;11.00;10.00;;;29.70;45.70;;;;;;5114918;28;20166;-51
2023/08/17 08:44:50;;;;;;;11.60;10.50;;;29.70;45.50;;;;;;5114461;28;20515;-53
2023/08/17 08:47:17;;;;;;;10.90;10.00;;;29.80;44.70;;;;;;5114713;28;20454;-57
2023/08/17 08:50:16;;;;;;;13.87;10.07;;;29.80;44.90;;;;;;5115007;28;20484;-50
2023/08/17 08:53:01;;;;;;;10.90;9.50;;;29.90;44.50;;;;;;5114599;28;20417;-56
2023/08/17 08:55:37;;;;;;;9.67;8.87;;;30.00;45.10;;;;;;5114435;28;20417;-55
2023/08/17 08:58:07;;;;;;;9.83;8.70;;;30.00;44.20;;;;;;5114129;28;20441;-50
2023/08/17 09:00:34;;;;;;;10.00;9.10;;;30.00;43.00;;;;;;5114594;28;20408;-55
2023/08/17 09:03:03;;;;;;;10.50;9.60;;;30.00;43.20;;;;;;5114605;27;20413;-52
2023/08/17 09:05:31;;;;;;;10.20;9.30;;;29.90;42.90;;;;;;5113194;28;20429;-51
2023/08/17 09:08:08;;;;;;;10.53;9.73;;;29.90;43.50;;;;;;5114366;28;20979;-55
2023/08/17 09:10:34;;;;;;;10.50;9.60;;;29.90;42.90;;;;;;5114231;28;20405;-52
2023/08/17 09:13:00;;;;;;;10.43;9.37;;;29.80;42.90;;;;;;5114491;28;20412;-51
2023/08/17 09:15:25;;;;;;;9.87;8.97;;;29.80;44.30;;;;;;5114175;28;20470;-54
2023/08/17 09:17:51;;;;;;;10.00;9.10;;;29.90;44.40;;;;;;5114556;28;20679;-53
2023/08/17 09:20:39;;;;;;;9.90;8.73;;;30.00;44.90;;;;;;5114085;28;20175;-52
2023/08/17 09:23:12;;;;;;;10.30;9.30;;;30.10;43.80;;;;;;5114437;28;20171;-53
2023/08/17 09:25:39;;;;;;;9.13;8.23;;;30.20;43.70;;;;;;5113850;28;20424;-52
2023/08/17 09:28:14;;;;;;;8.63;7.97;;;30.30;42.00;;;;;;5114049;28;20445;-52
2023/08/17 09:31:06;;;;;;;9.30;8.50;;;30.40;42.60;;;;;;5114101;28;20392;-52
2023/08/17 09:33:32;;;;;;;9.10;8.20;;;30.40;42.10;;;;;;5113930;28;20461;-52
2023/08/17 09:35:59;;;;;;;10.03;8.97;;;30.40;41.70;;;;;;5113459;28;20961;-50
2023/08/17 09:38:34;;;;;;;10.70;9.60;;;30.50;42.20;;;;;;5113932;28;20480;-54
2023/08/17 09:41:01;;;;;;;11.67;8.53;;;30.60;42.20;;;;;;5113480;28;20941;-53
2023/08/17 09:43:36;;;;;;;9.27;8.57;;;30.70;42.70;;;;;;5113665;27;20397;-53
2023/08/17 09:46:03;;;;;;;9.87;8.87;;;30.80;43.90;;;;;;5113716;28;20251;-56
2023/08/17 09:48:29;;;;;;;10.60;9.80;;;30.80;40.90;;;;;;5113765;28;20490;-53
2023/08/17 09:50:57;;;;;;;10.33;9.37;;;30.80;42.00;;;;;;5113579;28;20432;-56
2023/08/17 09:53:24;;;;;;;8.83;8.13;;;30.80;41.40;;;;;;5113676;28;20469;-51
2023/08/17 09:55:51;;;;;;;9.83;9.03;;;30.90;41.40;;;;;;5113325;28;20425;-52
2023/08/17 09:58:16;;;;;;;9.87;9.07;;;30.90;42.10;;;;;;5113647;28;20545;-56
2023/08/17 10:00:50;;;;;;;9.27;8.47;;;31.10;43.30;;;;;;5113496;28;20492;-51
2023/08/17 10:03:17;;;;;;;10.37;9.37;;;31.20;43.00;;;;;;5113363;28;20155;-56
2023/08/17 10:05:45;;;;;;;9.43;8.63;;;31.30;41.60;;;;;;5112929;28;20432;-51
2023/08/17 10:08:12;;;;;;;9.93;9.07;;;31.30;43.10;;;;;;5113137;28;20456;-53
2023/08/17 10:10:44;;;;;;;10.37;9.43;;;31.40;42.70;;;;;;5113131;28;20954;-55
2023/08/17 10:13:11;;;;;;;8.90;8.20;;;31.50;42.30;;;;;;5111907;28;20407;-51
2023/08/17 10:16:36;;;;;;;10.67;9.73;;;31.60;41.80;;;;;;5112900;28;20413;-53
2023/08/17 10:19:18;;;;;;;9.27;8.47;;;31.70;41.50;;;;;;5084663;28;20417;-52
2023/08/17 10:21:50;;;;;;;10.20;9.20;;;31.70;41.70;;;;;;5113084;28;20381;-56
2023/08/17 10:24:17;;;;;;;10.50;9.70;;;31.70;40.30;;;;;;5112872;28;20416;-52
2023/08/17 10:26:44;;;;;;;10.53;9.63;;;31.80;41.80;;;;;;5112809;28;20922;-52
2023/08/17 10:29:10;;;;;;;9.50;8.77;;;31.90;41.00;;;;;;5113149;28;20775;-57
2023/08/17 10:31:38;;;;;;;11.20;10.40;;;32.00;41.80;;;;;;5112857;28;20411;-56
2023/08/17 10:34:05;;;;;;;11.40;10.30;;;32.10;40.60;;;;;;5112514;28;20408;-52
2023/08/17 10:36:34;;;;;;;11.60;10.67;;;32.10;40.80;;;;;;5112848;28;20529;-51
2023/08/17 10:39:23;;;;;;;11.53;10.43;;;32.10;40.60;;;;;;5112710;28;20415;-52
2023/08/17 10:41:50;;;;;;;11.77;10.77;;;32.20;41.60;;;;;;5112774;28;20405;-52
2023/08/17 10:44:46;;;;;;;11.60;10.50;;;32.20;41.20;;;;;;5112602;28;20450;-56
2023/08/17 10:47:29;;;;;;;10.77;9.90;;;32.30;41.10;;;;;;5112736;28;20400;-52
2023/08/17 10:50:06;;;;;;;12.20;10.40;;;32.40;40.50;;;;;;5112631;28;20958;-57
2023/08/17 10:52:39;;;;;;;11.90;10.80;;;32.40;40.30;;;;;;5112638;28;20389;-54
2023/08/17 10:55:11;;;;;;;11.73;10.43;;;32.50;40.40;;;;;;5112551;28;20490;-55
2023/08/17 10:57:39;;;;;;;12.13;11.13;;;32.50;40.00;;;;;;5112582;28;20791;-52
2023/08/17 11:00:26;;;;;;;12.37;11.27;;;32.60;40.60;;;;;;5111394;28;20415;-52
2023/08/17 11:03:07;;;;;;;12.40;11.30;;;32.60;39.60;;;;;;5112326;28;20409;-55
2023/08/17 11:06:06;;;;;;;12.50;11.47;;;32.70;39.70;;;;;;5112332;28;20921;-54
2023/08/17 11:08:40;;;;;;;11.60;10.53;;;32.70;40.30;;;;;;5127081;28;20447;-52
2023/08/17 11:11:13;;;;;;;12.43;11.30;;;32.70;40.20;;;;;;5132743;27;20400;-52
2023/08/17 11:13:44;;;;;;;11.00;10.10;;;32.80;39.70;;;;;;5132823;28;20394;-52
2023/08/17 11:16:12;;;;;;;12.17;11.07;;;32.80;39.40;;;;;;5132598;27;20452;-53
2023/08/17 11:18:38;;;;;;;11.80;10.70;;;32.90;40.20;;;;;;5133097;27;20431;-57
2023/08/17 11:21:05;;;;;;;12.30;11.00;;;33.00;41.00;;;;;;5132845;27;20439;-52
2023/08/17 11:23:33;;;;;;;11.63;10.60;;;33.00;40.50;;;;;;5132755;27;20250;-56
2023/08/17 11:25:59;;;;;;;12.20;11.00;;;33.10;40.50;;;;;;5132491;27;20425;-51
2023/08/17 11:28:25;;;;;;;14.37;10.10;;;33.20;41.00;;;;;;5134511;27;21040;-56
2023/08/17 11:30:58;;;;;;;10.70;9.60;;;33.20;40.50;;;;;;5137083;27;20401;-52
2023/08/17 11:33:30;;;;;;;11.00;10.10;;;33.30;39.10;;;;;;5136745;27;20836;-55
2023/08/17 11:36:00;;;;;;;11.90;11.00;;;33.30;39.60;;;;;;5136233;27;20497;-53
2023/08/17 11:38:29;;;;;;;12.47;11.30;;;33.30;40.50;;;;;;5136983;27;20440;-56
2023/08/17 11:40:57;;;;;;;11.40;10.50;;;33.40;39.70;;;;;;5136654;27;20404;-55
2023/08/17 11:43:23;;;;;;;12.90;10.70;;;33.40;39.50;;;;;;5136618;27;20469;-51
2023/08/17 11:45:49;;;;;;;15.40;11.10;;;33.50;39.20;;;;;;5136393;27;20940;-54
2023/08/17 11:48:16;;;;;;;12.60;11.47;;;33.50;39.40;;;;;;5136349;27;20246;-55
2023/08/17 11:50:43;;;;;;;11.13;10.23;;;33.50;39.00;;;;;;5136488;27;20445;-51
2023/08/17 11:53:09;;;;;;;11.30;10.40;;;33.50;39.20;;;;;;5136382;27;20976;-57
2023/08/17 11:55:35;;;;;;;12.33;11.23;;;33.60;40.00;;;;;;5136155;27;20494;-53
2023/08/17 11:58:02;;;;;;;10.90;9.90;;;33.70;39.20;;;;;;5136351;27;20170;-52
2023/08/17 12:00:36;;;;;;;11.93;10.87;;;33.70;39.70;;;;;;5136365;27;20229;-56
2023/08/17 12:03:03;;;;;;;11.70;10.60;;;33.80;39.20;;;;;;5136223;27;20396;-53
2023/08/17 12:05:31;;;;;;;15.40;10.80;;;33.80;39.20;;;;;;5135894;27;20933;-52
2023/08/17 12:07:58;;;;;;;13.33;11.67;;;34.00;39.60;;;;;;5136321;27;20444;-55
2023/08/17 12:10:27;;;;;;;13.60;11.30;;;34.10;39.00;;;;;;5136186;27;20396;-55
2023/08/17 12:12:52;;;;;;;11.67;10.47;;;34.20;39.90;;;;;;5136196;27;20491;-56
2023/08/17 12:15:19;;;;;;;11.83;10.80;;;34.40;39.50;;;;;;5135661;27;20455;-57
2023/08/17 12:17:49;;;;;;;11.13;10.20;;;34.40;38.50;;;;;;5136181;27;20263;-52
2023/08/17 12:20:21;;;;;;;13.03;10.73;;;34.40;38.20;;;;;;5135901;27;20437;-51
2023/08/17 12:22:47;;;;;;;10.70;9.63;;;34.40;37.50;;;;;;5135926;27;20954;-55
2023/08/17 12:25:14;;;;;;;11.00;10.10;;;34.40;38.30;;;;;;5135573;27;20955;-56
2023/08/17 12:27:40;;;;;;;11.17;10.27;;;34.40;37.40;;;;;;5135845;27;20444;-52
2023/08/17 12:30:13;;;;;;;11.40;10.23;;;34.40;38.20;;;;;;5135671;27;20449;-56
2023/08/17 12:32:39;;;;;;;32.43;11.07;;;34.40;38.20;;;;;;5134502;27;20396;-55
2023/08/17 12:35:05;;;;;;;10.53;9.43;;;34.50;38.50;;;;;;5135241;27;20493;-53